EGMC/SEN METAR and TAF weather

Enter ICAO airport designator
Station Type Date Time Source
EGMC METAR 2020/10/29 17:20 UTC NOAA

EGMC 291720Z 23015KT 9999 FEW017 BKN044 14/12 Q1011


Station Type Date Time Source
EGMC Decoded METAR 2020/10/29 17:20 UTC NOAA

Southend-On-Sea , United Kingdom (EGMC) 51-34N 000-42E
Oct 29, 2020 - 01:20 PM EDT / 2020.10.29 1720 UTC
Wind: from the SW (230 degrees) at 17 MPH (15 KT):0
Visibility: greater than 7 mile(s):0
Sky conditions: mostly cloudy
Temperature: 57 F (14 C)
Dew Point: 53 F (12 C)
Relative Humidity: 87%
Pressure (altimeter): 29.85 in. Hg (1011 hPa)
ob: EGMC 291720Z 23015KT 9999 FEW017 BKN044 14/12 Q1011
cycle: 17

Station Type Date Time Source
EGMC TAF 2016/04/18 18:00 UTC NOAA

TAF EGMC 181658Z 1818/1903 28008KT 9999 BKN045

Example: see airport list